createdAt,value
2018-12-18T00:00:48.550Z,-2.10
2018-12-18T00:03:17.286Z,-2.57
2018-12-18T00:05:45.814Z,-2.11
2018-12-18T00:08:14.697Z,-2.76
2018-12-18T00:10:52.314Z,-2.10
2018-12-18T00:13:20.843Z,-2.14
2018-12-18T00:15:49.764Z,-2.14
2018-12-18T00:18:18.443Z,-2.21
2018-12-18T00:20:47.179Z,-2.25
2018-12-18T00:23:15.904Z,-2.29
2018-12-18T00:25:44.592Z,-2.30
2018-12-18T00:28:13.282Z,-2.30
2018-12-18T00:30:41.891Z,-2.35
2018-12-18T00:35:48.553Z,-2.32
2018-12-18T00:38:17.103Z,-2.30
2018-12-18T00:40:45.790Z,-2.65
2018-12-18T00:43:14.377Z,-2.28
2018-12-18T00:45:43.552Z,-2.26
2018-12-18T00:48:12.146Z,-2.25
2018-12-18T00:50:40.841Z,-2.25
2018-12-18T00:53:09.405Z,-2.24
2018-12-18T00:55:38.185Z,-2.22
2018-12-18T00:58:06.812Z,-2.21
2018-12-18T01:00:35.401Z,-2.22
2018-12-18T01:03:04.375Z,-2.26
2018-12-18T01:05:32.922Z,-2.26
2018-12-18T01:08:01.932Z,-2.25
2018-12-18T01:10:30.539Z,-2.25
2018-12-18T01:12:59.232Z,-2.32
2018-12-18T01:15:27.869Z,-2.36
2018-12-18T01:17:56.443Z,-2.37
2018-12-18T01:20:25.092Z,-2.37
2018-12-18T01:22:53.699Z,-2.39
2018-12-18T01:25:22.795Z,-2.38
2018-12-18T01:27:51.398Z,-2.38
2018-12-18T01:30:20.379Z,-2.37
2018-12-18T01:32:48.915Z,-2.35
2018-12-18T01:35:17.608Z,-2.35
2018-12-18T01:37:46.197Z,-2.36
2018-12-18T01:40:14.746Z,-2.37
2018-12-18T01:42:43.566Z,-2.36
2018-12-18T01:45:12.146Z,-2.36
2018-12-18T01:47:41.174Z,-2.35
2018-12-18T01:50:09.987Z,-2.32
2018-12-18T01:52:38.916Z,-2.32
2018-12-18T01:55:08.007Z,-2.34
2018-12-18T01:57:36.784Z,-2.38
2018-12-18T02:00:05.841Z,-2.39
2018-12-18T02:05:12.687Z,-2.41
2018-12-18T02:07:41.222Z,-2.41
2018-12-18T02:10:09.994Z,-2.41
2018-12-18T02:12:38.631Z,-2.38
2018-12-18T02:15:07.302Z,-2.34
2018-12-18T02:17:36.062Z,-2.32
2018-12-18T02:20:05.615Z,-2.32
2018-12-18T02:22:34.447Z,-2.28
2018-12-18T02:25:03.252Z,-2.28
2018-12-18T02:27:32.283Z,-2.27
2018-12-18T02:30:00.853Z,-2.27
2018-12-18T02:32:29.641Z,-2.25
2018-12-18T02:34:58.349Z,-2.24
2018-12-18T02:37:26.880Z,-2.25
2018-12-18T02:39:55.776Z,-2.53
2018-12-18T02:42:24.341Z,-2.24
2018-12-18T02:44:53.263Z,-2.23
2018-12-18T02:47:21.878Z,-2.25
2018-12-18T02:49:51.293Z,-2.25
2018-12-18T02:52:19.819Z,-2.27
2018-12-18T02:54:48.346Z,-2.27
2018-12-18T02:57:16.946Z,-2.48
2018-12-18T02:59:45.526Z,-2.26
2018-12-18T03:02:14.188Z,-2.23
2018-12-18T03:04:42.810Z,-2.25
2018-12-18T03:07:11.630Z,-2.81
2018-12-18T03:09:40.234Z,-2.29
2018-12-18T03:12:09.257Z,-2.29
2018-12-18T03:14:37.858Z,-2.30
2018-12-18T03:17:06.482Z,-2.29
2018-12-18T03:19:35.097Z,-2.28
2018-12-18T03:22:03.780Z,-2.26
2018-12-18T03:24:32.746Z,-2.24
2018-12-18T03:27:01.386Z,-2.27
2018-12-18T03:29:30.410Z,-2.69
2018-12-18T03:32:02.110Z,-2.31
2018-12-18T03:34:31.110Z,-2.32
2018-12-18T03:36:59.656Z,-2.31
2018-12-18T03:39:28.657Z,-2.31
2018-12-18T03:41:57.322Z,-2.32
2018-12-18T03:44:26.177Z,-2.33
2018-12-18T03:46:54.868Z,-2.32
2018-12-18T03:49:23.484Z,-2.35
2018-12-18T03:51:52.062Z,-2.34
2018-12-18T03:54:20.684Z,-2.34
2018-12-18T03:56:49.746Z,-2.34
2018-12-18T03:59:18.360Z,-2.34
2018-12-18T04:01:47.355Z,-2.34
2018-12-18T04:04:16.031Z,-2.35
2018-12-18T04:06:44.599Z,-2.36
2018-12-18T04:09:13.137Z,-2.37
2018-12-18T04:11:47.040Z,-2.37
2018-12-18T04:14:15.876Z,-2.36
2018-12-18T04:16:44.678Z,-2.91
2018-12-18T04:19:13.276Z,-2.34
2018-12-18T04:21:42.361Z,-2.33
2018-12-18T04:24:10.946Z,-2.35
2018-12-18T04:26:39.712Z,-2.35
2018-12-18T04:29:08.334Z,-2.35
2018-12-18T04:31:36.934Z,-2.34
2018-12-18T04:34:05.835Z,-2.34
2018-12-18T04:36:34.489Z,-2.34
2018-12-18T04:39:04.510Z,-2.35
2018-12-18T04:41:33.227Z,-2.36
2018-12-18T04:44:02.877Z,-2.38
2018-12-18T04:46:31.526Z,-2.41
2018-12-18T04:49:00.491Z,-2.43
2018-12-18T04:51:29.305Z,-2.63
2018-12-18T04:53:58.769Z,-2.45
2018-12-18T04:56:27.642Z,-2.63
2018-12-18T04:58:56.570Z,-2.50
2018-12-18T05:01:25.686Z,-2.51
2018-12-18T05:03:54.313Z,-2.50
2018-12-18T05:06:23.509Z,-2.55
2018-12-18T05:08:52.183Z,-2.54
2018-12-18T05:11:21.618Z,-2.56
2018-12-18T05:13:50.416Z,-2.58
2018-12-18T05:16:19.651Z,-2.62
2018-12-18T05:18:48.373Z,-2.63
2018-12-18T05:21:17.219Z,-2.67
2018-12-18T05:23:45.756Z,-2.69
2018-12-18T05:26:14.278Z,-2.70
2018-12-18T05:28:42.965Z,-2.77
2018-12-18T05:31:11.528Z,-2.74
2018-12-18T05:33:40.480Z,-2.75
2018-12-18T05:36:09.083Z,-2.76
2018-12-18T05:38:38.038Z,-2.83
2018-12-18T05:41:06.735Z,-2.79
2018-12-18T05:43:35.471Z,-2.78
2018-12-18T05:46:04.064Z,-2.79
2018-12-18T05:48:32.698Z,-2.79
2018-12-18T05:51:01.351Z,-2.75
2018-12-18T05:53:29.930Z,-2.78
2018-12-18T05:55:58.659Z,-2.77
2018-12-18T05:58:27.437Z,-2.77
2018-12-18T06:00:56.294Z,-2.73
2018-12-18T06:03:24.976Z,-2.86
2018-12-18T06:05:56.559Z,-2.75
2018-12-18T06:08:26.861Z,-2.72
2018-12-18T06:10:55.710Z,-2.72
2018-12-18T06:13:25.797Z,-2.74
2018-12-18T06:15:55.197Z,-2.71
2018-12-18T06:18:24.766Z,-2.73
2018-12-18T06:20:54.320Z,-3.13
2018-12-18T06:23:23.097Z,-2.74
2018-12-18T06:25:52.681Z,-2.73
2018-12-18T06:28:21.438Z,-2.70
2018-12-18T06:30:50.496Z,-2.67
2018-12-18T06:33:19.301Z,-2.68
2018-12-18T06:35:47.902Z,-2.69
2018-12-18T06:38:16.647Z,-2.72
2018-12-18T06:40:45.212Z,-2.75
2018-12-18T06:43:13.942Z,-2.76
2018-12-18T06:45:42.631Z,-2.77
2018-12-18T06:48:11.995Z,-3.38
2018-12-18T06:50:40.551Z,-2.79
2018-12-18T06:53:09.384Z,-2.81
2018-12-18T06:55:38.049Z,-2.83
2018-12-18T06:58:06.782Z,-2.85
2018-12-18T07:00:35.478Z,-2.86
2018-12-18T07:03:04.128Z,-2.87
2018-12-18T07:05:33.172Z,-3.32
2018-12-18T07:08:01.760Z,-2.89
2018-12-18T07:10:30.592Z,-2.93
2018-12-18T07:12:59.618Z,-2.89
2018-12-18T07:15:28.988Z,-2.90
2018-12-18T07:17:57.954Z,-2.91
2018-12-18T07:20:26.696Z,-2.91
2018-12-18T07:22:55.421Z,-2.93
2018-12-18T07:25:24.077Z,-2.84
2018-12-18T07:27:52.654Z,-2.85
2018-12-18T07:30:21.228Z,-2.85
2018-12-18T07:32:50.147Z,-2.85
2018-12-18T07:35:23.185Z,-2.82
2018-12-18T07:37:49.519Z,-3.31
2018-12-18T07:40:18.282Z,-2.79
2018-12-18T07:42:47.171Z,-2.79
2018-12-18T07:45:15.772Z,-2.77
2018-12-18T07:47:44.603Z,-2.75
2018-12-18T07:50:13.221Z,-2.74
2018-12-18T07:52:41.759Z,-2.72
2018-12-18T07:55:10.623Z,-2.85
2018-12-18T07:57:39.177Z,-3.09
2018-12-18T08:00:08.242Z,-2.68
2018-12-18T08:02:36.853Z,-2.66
2018-12-18T08:05:06.247Z,-2.65
2018-12-18T08:07:34.827Z,-2.68
2018-12-18T08:10:03.456Z,-2.63
2018-12-18T08:12:32.007Z,-2.60
2018-12-18T08:15:00.567Z,-2.61
2018-12-18T08:17:29.469Z,-2.58
2018-12-18T08:19:58.064Z,-2.59
2018-12-18T08:22:26.948Z,-2.57
2018-12-18T08:24:55.528Z,-2.57
2018-12-18T08:27:24.169Z,-2.55
2018-12-18T08:29:52.799Z,-2.56
2018-12-18T08:32:21.439Z,-2.54
2018-12-18T08:34:50.034Z,-2.87
2018-12-18T08:37:18.602Z,-2.53
2018-12-18T08:39:47.431Z,-2.53
2018-12-18T08:42:15.977Z,-2.52
2018-12-18T08:44:44.776Z,-2.47
2018-12-18T08:47:13.406Z,-2.46
2018-12-18T08:49:42.128Z,-2.44
2018-12-18T08:52:10.762Z,-2.63
2018-12-18T08:54:39.279Z,-2.40
2018-12-18T08:57:08.134Z,-3.09
2018-12-18T08:59:36.690Z,-2.36
2018-12-18T09:02:05.761Z,-2.35
2018-12-18T09:04:34.402Z,-2.34
2018-12-18T09:07:03.240Z,-2.31
2018-12-18T09:09:31.932Z,-2.29
2018-12-18T09:12:00.514Z,-2.27
2018-12-18T09:14:29.197Z,-2.25
2018-12-18T09:17:02.806Z,-2.23
2018-12-18T09:19:31.760Z,-2.21
2018-12-18T09:22:00.782Z,-2.18
2018-12-18T09:24:29.384Z,-2.17
2018-12-18T09:26:58.115Z,-2.15
2018-12-18T09:29:26.698Z,-2.13
2018-12-18T09:31:55.219Z,-2.50
2018-12-18T09:34:24.074Z,-2.01
2018-12-18T09:36:52.831Z,-1.91
2018-12-18T09:39:25.636Z,-1.81
2018-12-18T09:41:58.394Z,-1.75
2018-12-18T09:44:28.989Z,-1.68
2018-12-18T09:46:57.720Z,-1.61
2018-12-18T09:49:26.291Z,-1.56
2018-12-18T09:51:55.247Z,-1.51
2018-12-18T09:54:23.850Z,-1.44
2018-12-18T09:56:52.630Z,-1.39
2018-12-18T09:59:21.226Z,-1.31
2018-12-18T10:01:49.806Z,-1.37
2018-12-18T10:04:18.608Z,-1.29
2018-12-18T10:06:47.295Z,-1.26
2018-12-18T10:09:16.197Z,-1.19
2018-12-18T10:11:44.699Z,-1.14
2018-12-18T10:14:13.504Z,-1.11
2018-12-18T10:16:42.052Z,-1.23
2018-12-18T10:19:10.714Z,-1.09
2018-12-18T10:21:39.507Z,-1.04
2018-12-18T10:24:08.025Z,-1.02
2018-12-18T10:26:36.794Z,-0.99
2018-12-18T10:29:05.504Z,-0.98
2018-12-18T10:31:34.430Z,-1.41
2018-12-18T10:34:02.987Z,-0.98
2018-12-18T10:36:31.721Z,-0.92
2018-12-18T10:39:00.746Z,-0.87
2018-12-18T10:41:29.254Z,-0.85
2018-12-18T10:43:57.790Z,-0.83
2018-12-18T10:46:27.382Z,-0.79
2018-12-18T10:48:56.207Z,-0.75
2018-12-18T10:51:24.773Z,-0.72
2018-12-18T10:53:53.534Z,-0.71
2018-12-18T10:56:22.058Z,-0.68
2018-12-18T10:58:50.735Z,-0.65
2018-12-18T11:01:24.396Z,-0.63
2018-12-18T11:03:53.237Z,-0.57
2018-12-18T11:06:21.888Z,-0.56
2018-12-18T11:08:50.899Z,-0.83
2018-12-18T11:11:19.442Z,-0.98
2018-12-18T11:13:51.199Z,-0.43
2018-12-18T11:16:19.796Z,-0.37
2018-12-18T11:21:27.478Z,-0.61
2018-12-18T11:23:56.094Z,-0.29
2018-12-18T11:26:24.889Z,-0.27
2018-12-18T11:28:53.464Z,-0.23
2018-12-18T11:34:01.302Z,-0.17
2018-12-18T11:36:29.889Z,-0.15
2018-12-18T11:38:58.516Z,-0.12
2018-12-18T11:41:27.077Z,-0.14
2018-12-18T11:43:55.801Z,-0.10
2018-12-18T11:46:24.522Z,-0.07
2018-12-18T11:48:53.154Z,-0.07
2018-12-18T11:51:21.870Z,-0.05
2018-12-18T11:53:50.468Z,-0.04
2018-12-18T11:56:19.263Z,-0.65
2018-12-18T11:58:47.850Z,-0.33
2018-12-18T12:01:16.793Z,-0.48
2018-12-18T12:03:45.399Z,0.04
2018-12-18T12:06:14.261Z,0.03
2018-12-18T12:08:42.816Z,0.07
2018-12-18T12:11:11.386Z,0.09
2018-12-18T12:13:39.928Z,0.12
2018-12-18T12:16:08.478Z,0.13
2018-12-18T12:18:37.430Z,0.16
2018-12-18T12:21:05.988Z,0.20
2018-12-18T12:23:34.756Z,0.28
2018-12-18T12:26:07.559Z,0.36
2018-12-18T12:28:36.272Z,0.44
2018-12-18T12:31:04.822Z,0.50
2018-12-18T12:33:33.810Z,0.54
2018-12-18T12:36:02.406Z,0.52
2018-12-18T12:38:31.118Z,0.43
2018-12-18T12:40:59.791Z,0.37
2018-12-18T12:43:28.549Z,0.29
2018-12-18T12:45:57.122Z,0.23
2018-12-18T12:48:29.974Z,0.15
2018-12-18T12:50:58.612Z,0.10
2018-12-18T12:53:27.191Z,0.03
2018-12-18T12:55:55.775Z,-0.02
2018-12-18T12:58:24.459Z,0.01
2018-12-18T13:00:53.344Z,-0.68
2018-12-18T13:03:21.863Z,0.07
2018-12-18T13:05:50.808Z,-0.62
2018-12-18T13:08:19.695Z,0.13
2018-12-18T13:10:48.371Z,0.15
2018-12-18T13:13:16.895Z,0.18
2018-12-18T13:18:24.250Z,0.21
2018-12-18T13:20:52.835Z,0.22
2018-12-18T13:23:21.474Z,0.24
2018-12-18T13:25:50.005Z,0.20
2018-12-18T13:28:18.565Z,0.22
2018-12-18T13:30:47.318Z,0.23
2018-12-18T13:33:15.813Z,0.28
2018-12-18T13:35:44.644Z,-0.29
2018-12-18T13:38:13.151Z,0.29
2018-12-18T13:40:42.027Z,0.31
2018-12-18T13:43:10.628Z,0.33
2018-12-18T13:45:39.194Z,0.31
2018-12-18T13:48:07.902Z,0.19
2018-12-18T13:50:36.478Z,0.34
2018-12-18T13:53:05.414Z,0.35
2018-12-18T13:55:36.737Z,0.30
2018-12-18T13:58:04.989Z,0.33
2018-12-18T14:00:33.564Z,0.33
2018-12-18T14:03:02.470Z,0.36
2018-12-18T14:05:31.021Z,0.38
2018-12-18T14:07:59.678Z,0.34
2018-12-18T14:10:28.722Z,0.33
2018-12-18T14:12:59.325Z,0.34
2018-12-18T14:15:30.592Z,0.35
2018-12-18T14:18:00.440Z,0.37
2018-12-18T14:20:29.096Z,0.37
2018-12-18T14:22:58.087Z,0.38
2018-12-18T14:25:27.389Z,0.40
2018-12-18T14:27:56.258Z,0.37
2018-12-18T14:30:24.859Z,0.39
2018-12-18T14:32:53.481Z,0.40
2018-12-18T14:35:22.229Z,0.42
2018-12-18T14:37:50.813Z,0.41
2018-12-18T14:40:19.600Z,0.41
2018-12-18T14:42:48.148Z,0.42
2018-12-18T14:45:17.115Z,0.43
2018-12-18T14:47:45.627Z,0.45
2018-12-18T14:50:15.689Z,0.44
2018-12-18T14:52:44.398Z,0.42
2018-12-18T14:55:13.398Z,0.45
2018-12-18T14:57:42.279Z,0.45
2018-12-18T15:00:11.220Z,0.48
2018-12-18T15:02:40.225Z,0.15
2018-12-18T15:05:09.617Z,0.50
2018-12-18T15:07:38.312Z,0.52
2018-12-18T15:10:09.793Z,0.52
2018-12-18T15:12:42.786Z,0.53
2018-12-18T15:15:11.526Z,0.55
2018-12-18T15:17:40.547Z,0.58
2018-12-18T15:20:10.663Z,0.57
2018-12-18T15:22:40.014Z,0.56
2018-12-18T15:25:08.917Z,0.57
2018-12-18T15:27:38.645Z,0.59
2018-12-18T15:30:09.395Z,0.58
2018-12-18T15:32:38.434Z,0.59
2018-12-18T15:35:07.373Z,0.60
2018-12-18T15:37:36.824Z,0.62
2018-12-18T15:40:06.074Z,0.63
2018-12-18T15:42:34.923Z,0.66
2018-12-18T15:45:03.430Z,0.67
2018-12-18T15:47:31.966Z,0.67
2018-12-18T15:50:00.810Z,0.08
2018-12-18T15:52:30.049Z,0.70
2018-12-18T15:54:58.778Z,0.14
2018-12-18T15:57:28.764Z,0.70
2018-12-18T15:59:57.586Z,0.72
2018-12-18T16:02:26.154Z,0.76
2018-12-18T16:04:54.923Z,0.76
2018-12-18T16:07:23.526Z,0.77
2018-12-18T16:09:52.114Z,0.76
2018-12-18T16:12:20.952Z,0.77
2018-12-18T16:14:49.446Z,0.79
2018-12-18T16:19:56.578Z,0.78
2018-12-18T16:22:25.134Z,0.78
2018-12-18T16:24:53.700Z,0.59
2018-12-18T16:27:22.357Z,0.78
2018-12-18T16:29:53.696Z,0.79
2018-12-18T16:32:23.586Z,0.78
2018-12-18T16:34:53.011Z,0.79
2018-12-18T16:37:23.210Z,0.78
2018-12-18T16:39:52.854Z,0.79
2018-12-18T16:42:21.466Z,0.82
2018-12-18T16:44:50.066Z,0.83
2018-12-18T16:47:18.697Z,0.85
2018-12-18T16:49:47.543Z,0.85
2018-12-18T16:52:16.104Z,0.88
2018-12-18T16:54:45.087Z,0.91
2018-12-18T16:57:13.939Z,0.93
2018-12-18T16:59:42.566Z,0.94
2018-12-18T17:02:11.167Z,0.95
2018-12-18T17:04:39.725Z,0.97
2018-12-18T17:07:08.445Z,0.53
2018-12-18T17:09:36.996Z,1.00
2018-12-18T17:12:06.147Z,0.55
2018-12-18T17:14:34.829Z,1.03
2018-12-18T17:17:03.927Z,1.05
2018-12-18T17:19:32.588Z,1.07
2018-12-18T17:22:01.172Z,1.08
2018-12-18T17:24:29.717Z,1.08
2018-12-18T17:26:58.479Z,1.03
2018-12-18T17:29:27.683Z,1.10
2018-12-18T17:31:56.894Z,1.11
2018-12-18T17:34:25.670Z,1.12
2018-12-18T17:36:54.428Z,1.11
2018-12-18T17:42:01.960Z,1.02
2018-12-18T17:44:30.587Z,1.16
2018-12-18T17:46:59.639Z,1.18
2018-12-18T17:49:28.176Z,1.19
2018-12-18T17:51:57.191Z,1.22
2018-12-18T17:54:25.691Z,1.23
2018-12-18T17:56:54.765Z,1.23
2018-12-18T17:59:23.458Z,1.26
2018-12-18T18:01:52.128Z,1.26
2018-12-18T18:04:21.049Z,1.18
2018-12-18T18:06:49.579Z,1.25
2018-12-18T18:09:18.573Z,1.29
2018-12-18T18:11:47.174Z,1.28
2018-12-18T18:14:16.216Z,1.31
2018-12-18T18:16:44.779Z,1.38
2018-12-18T18:19:13.399Z,1.37
2018-12-18T18:21:42.050Z,1.34
2018-12-18T18:24:10.625Z,1.40
2018-12-18T18:26:39.498Z,1.42
2018-12-18T18:29:08.419Z,1.41
2018-12-18T18:31:37.240Z,1.43
2018-12-18T18:34:05.885Z,1.42
2018-12-18T18:36:35.642Z,1.42
2018-12-18T18:39:07.441Z,1.43
2018-12-18T18:41:36.175Z,1.41
2018-12-18T18:44:04.995Z,1.41
2018-12-18T18:49:13.048Z,1.39
2018-12-18T18:51:41.733Z,1.38
2018-12-18T18:54:10.394Z,1.40
2018-12-18T18:56:39.053Z,1.39
2018-12-18T18:59:07.819Z,0.99
2018-12-18T19:01:37.047Z,1.40
2018-12-18T19:04:06.076Z,1.41
2018-12-18T19:06:34.882Z,1.42
2018-12-18T19:09:05.340Z,1.41
2018-12-18T19:11:34.083Z,1.44
2018-12-18T19:14:02.986Z,1.45
2018-12-18T19:16:31.947Z,1.46
2018-12-18T19:19:00.633Z,1.46
2018-12-18T19:21:29.237Z,1.47
2018-12-18T19:23:57.946Z,1.45
2018-12-18T19:26:26.748Z,0.78
2018-12-18T19:28:55.492Z,1.47
2018-12-18T19:31:24.341Z,1.49
2018-12-18T19:33:52.971Z,1.47
2018-12-18T19:36:21.718Z,1.49
2018-12-18T19:38:50.340Z,1.19
2018-12-18T19:41:19.133Z,1.50
2018-12-18T19:43:48.107Z,1.18
2018-12-18T19:46:16.694Z,1.46
2018-12-18T19:48:45.751Z,1.49
2018-12-18T19:51:14.356Z,1.52
2018-12-18T19:53:43.640Z,1.51
2018-12-18T19:56:12.178Z,1.50
2018-12-18T19:58:41.097Z,1.50
2018-12-18T20:01:09.780Z,1.52
2018-12-18T20:03:38.515Z,1.51
2018-12-18T20:06:07.134Z,1.32
2018-12-18T20:08:35.802Z,1.55
2018-12-18T20:11:04.591Z,1.55
2018-12-18T20:13:33.211Z,1.56
2018-12-18T20:18:39.891Z,1.57
2018-12-18T20:21:08.533Z,1.58
2018-12-18T20:23:37.526Z,1.56
2018-12-18T20:26:07.542Z,1.52
2018-12-18T20:28:36.314Z,1.61
2018-12-18T20:31:04.987Z,1.60
2018-12-18T20:33:33.907Z,1.27
2018-12-18T20:36:02.471Z,1.61
2018-12-18T20:38:32.299Z,1.63
2018-12-18T20:41:01.088Z,1.63
2018-12-18T20:43:29.778Z,1.63
2018-12-18T20:45:58.464Z,1.67
2018-12-18T20:48:27.033Z,1.65
2018-12-18T20:50:55.754Z,1.60
2018-12-18T20:53:24.427Z,1.63
2018-12-18T20:55:53.290Z,1.63
2018-12-18T20:58:21.814Z,1.61
2018-12-18T21:00:51.111Z,1.63
2018-12-18T21:03:19.759Z,1.64
2018-12-18T21:05:48.450Z,1.68
2018-12-18T21:08:23.166Z,1.65
2018-12-18T21:10:48.055Z,1.65
2018-12-18T21:13:21.847Z,1.66
2018-12-18T21:15:50.816Z,1.01
2018-12-18T21:18:19.559Z,1.66
2018-12-18T21:20:48.408Z,1.66
2018-12-18T21:23:17.034Z,1.65
2018-12-18T21:25:45.925Z,1.67
2018-12-18T21:28:14.451Z,1.68
2018-12-18T21:30:43.094Z,1.71
2018-12-18T21:33:11.667Z,1.71
2018-12-18T21:35:40.286Z,1.69
2018-12-18T21:38:09.141Z,1.72
2018-12-18T21:40:38.984Z,1.70
2018-12-18T21:43:08.509Z,1.18
2018-12-18T21:45:37.088Z,1.73
2018-12-18T21:48:05.969Z,1.76
2018-12-18T21:50:34.615Z,1.76
2018-12-18T21:53:03.418Z,1.75
2018-12-18T21:55:32.220Z,1.78
2018-12-18T21:58:00.801Z,1.79
2018-12-18T22:00:29.458Z,1.80
2018-12-18T22:02:58.143Z,1.81
2018-12-18T22:05:27.106Z,1.83
2018-12-18T22:07:55.722Z,1.81
2018-12-18T22:10:24.721Z,1.83
2018-12-18T22:12:53.214Z,1.83
2018-12-18T22:15:21.914Z,1.84
2018-12-18T22:17:50.423Z,1.84
2018-12-18T22:20:19.013Z,1.84
2018-12-18T22:22:47.728Z,1.74
2018-12-18T22:25:16.275Z,1.86
2018-12-18T22:27:46.328Z,1.88
2018-12-18T22:30:15.221Z,1.90
2018-12-18T22:32:44.215Z,1.92
2018-12-18T22:35:12.944Z,1.92
2018-12-18T22:37:41.843Z,1.93
2018-12-18T22:40:10.364Z,1.92
2018-12-18T22:42:39.082Z,1.91
2018-12-18T22:45:07.750Z,1.73
2018-12-18T22:47:36.263Z,1.92
2018-12-18T22:50:05.724Z,1.34
2018-12-18T22:52:34.782Z,1.92
2018-12-18T22:55:03.594Z,1.90
2018-12-18T22:57:32.189Z,1.91
2018-12-18T23:00:01.163Z,1.91
2018-12-18T23:02:29.686Z,1.93
2018-12-18T23:04:58.549Z,1.91
2018-12-18T23:07:27.096Z,1.91
2018-12-18T23:09:55.760Z,1.91
2018-12-18T23:12:24.518Z,1.91
2018-12-18T23:14:53.051Z,1.93
2018-12-18T23:17:21.950Z,1.93
2018-12-18T23:19:50.462Z,1.92
2018-12-18T23:22:19.332Z,1.93
2018-12-18T23:24:47.894Z,1.94
2018-12-18T23:27:16.434Z,1.92
2018-12-18T23:29:45.058Z,1.91
2018-12-18T23:32:13.599Z,1.92
2018-12-18T23:34:42.338Z,1.92
2018-12-18T23:37:10.843Z,1.94
2018-12-18T23:39:39.772Z,1.95
2018-12-18T23:42:08.414Z,1.95
2018-12-18T23:44:37.037Z,1.95
2018-12-18T23:47:05.690Z,1.95
2018-12-18T23:49:34.269Z,1.96
2018-12-18T23:52:03.037Z,1.65
2018-12-18T23:54:31.538Z,1.99
2018-12-18T23:57:00.223Z,1.64
2018-12-18T23:59:28.875Z,2.01
